sensor_id;sensor_type;location;lat;lon;timestamp;P1;durP1;ratioP1;P2;durP2;ratioP2
71637;SDS011;59485;43.542;-5.676;2023-10-31T00:39:43;6.57;;;0.52;;
71637;SDS011;59485;43.542;-5.676;2023-10-31T00:42:32;5.25;;;0.50;;
71637;SDS011;59485;43.542;-5.676;2023-10-31T01:00:11;4.07;;;0.30;;
71637;SDS011;59485;43.542;-5.676;2023-10-31T01:16:49;5.93;;;0.77;;
71637;SDS011;59485;43.542;-5.676;2023-10-31T01:19:38;5.90;;;0.80;;
71637;SDS011;59485;43.542;-5.676;2023-10-31T01:22:03;8.35;;;0.80;;
71637;SDS011;59485;43.542;-5.676;2023-10-31T01:24:33;4.77;;;0.73;;
71637;SDS011;59485;43.542;-5.676;2023-10-31T01:26:58;6.32;;;0.52;;
71637;SDS011;59485;43.542;-5.676;2023-10-31T01:29:31;6.45;;;1.17;;
71637;SDS011;59485;43.542;-5.676;2023-10-31T01:31:59;5.37;;;0.43;;
71637;SDS011;59485;43.542;-5.676;2023-10-31T01:34:42;6.05;;;0.40;;
71637;SDS011;59485;43.542;-5.676;2023-10-31T01:37:33;8.23;;;0.73;;
71637;SDS011;59485;43.542;-5.676;2023-10-31T01:40:24;6.45;;;0.30;;
71637;SDS011;59485;43.542;-5.676;2023-10-31T01:43:14;5.68;;;0.35;;
71637;SDS011;59485;43.542;-5.676;2023-10-31T01:45:56;2.87;;;0.30;;
71637;SDS011;59485;43.542;-5.676;2023-10-31T01:48:28;5.00;;;0.30;;
71637;SDS011;59485;43.542;-5.676;2023-10-31T01:51:13;6.00;;;0.35;;
71637;SDS011;59485;43.542;-5.676;2023-10-31T01:53:47;3.95;;;0.28;;
71637;SDS011;59485;43.542;-5.676;2023-10-31T02:13:32;3.70;;;0.50;;
71637;SDS011;59485;43.542;-5.676;2023-10-31T02:59:23;4.82;;;0.50;;
71637;SDS011;59485;43.542;-5.676;2023-10-31T03:01:56;5.65;;;0.70;;
71637;SDS011;59485;43.542;-5.676;2023-10-31T03:04:27;7.30;;;0.88;;
71637;SDS011;59485;43.542;-5.676;2023-10-31T03:07:13;6.57;;;0.97;;
71637;SDS011;59485;43.542;-5.676;2023-10-31T03:09:46;7.22;;;0.70;;
71637;SDS011;59485;43.542;-5.676;2023-10-31T03:12:16;7.30;;;0.80;;
71637;SDS011;59485;43.542;-5.676;2023-10-31T03:14:49;10.60;;;0.65;;
71637;SDS011;59485;43.542;-5.676;2023-10-31T03:17:17;6.72;;;1.48;;
71637;SDS011;59485;43.542;-5.676;2023-10-31T03:19:46;6.60;;;0.30;;
71637;SDS011;59485;43.542;-5.676;2023-10-31T03:22:11;4.60;;;0.32;;
71637;SDS011;59485;43.542;-5.676;2023-10-31T03:24:37;3.03;;;0.50;;
71637;SDS011;59485;43.542;-5.676;2023-10-31T03:27:11;5.63;;;0.70;;
71637;SDS011;59485;43.542;-5.676;2023-10-31T03:29:36;4.80;;;0.40;;
71637;SDS011;59485;43.542;-5.676;2023-10-31T03:32:05;4.57;;;0.50;;
71637;SDS011;59485;43.542;-5.676;2023-10-31T03:34:30;4.50;;;0.70;;
71637;SDS011;59485;43.542;-5.676;2023-10-31T03:36:59;3.20;;;0.50;;
71637;SDS011;59485;43.542;-5.676;2023-10-31T03:44:34;4.10;;;0.47;;
71637;SDS011;59485;43.542;-5.676;2023-10-31T05:48:42;22.37;;;8.40;;
71637;SDS011;59485;43.542;-5.676;2023-10-31T06:02:26;6.73;;;1.83;;
71637;SDS011;59485;43.542;-5.676;2023-10-31T06:10:49;7.65;;;0.98;;
71637;SDS011;59485;43.542;-5.676;2023-10-31T06:13:16;4.00;;;0.68;;
71637;SDS011;59485;43.542;-5.676;2023-10-31T06:15:41;5.90;;;0.90;;
71637;SDS011;59485;43.542;-5.676;2023-10-31T06:18:07;4.37;;;0.63;;
71637;SDS011;59485;43.542;-5.676;2023-10-31T06:20:50;4.75;;;0.68;;
71637;SDS011;59485;43.542;-5.676;2023-10-31T06:23:28;4.20;;;0.60;;
71637;SDS011;59485;43.542;-5.676;2023-10-31T06:25:54;5.40;;;0.90;;
71637;SDS011;59485;43.542;-5.676;2023-10-31T06:28:19;8.70;;;1.07;;
71637;SDS011;59485;43.542;-5.676;2023-10-31T06:30:44;4.97;;;0.90;;
71637;SDS011;59485;43.542;-5.676;2023-10-31T06:33:13;8.30;;;1.73;;
71637;SDS011;59485;43.542;-5.676;2023-10-31T06:35:38;7.55;;;1.50;;
71637;SDS011;59485;43.542;-5.676;2023-10-31T06:38:04;6.53;;;1.50;;
71637;SDS011;59485;43.542;-5.676;2023-10-31T06:40:29;8.83;;;1.60;;
71637;SDS011;59485;43.542;-5.676;2023-10-31T06:42:54;7.63;;;1.83;;
71637;SDS011;59485;43.542;-5.676;2023-10-31T06:45:20;5.33;;;0.93;;
71637;SDS011;59485;43.542;-5.676;2023-10-31T06:47:46;6.20;;;1.33;;
71637;SDS011;59485;43.542;-5.676;2023-10-31T06:50:11;9.80;;;1.47;;
71637;SDS011;59485;43.542;-5.676;2023-10-31T06:52:37;6.40;;;0.57;;
71637;SDS011;59485;43.542;-5.676;2023-10-31T06:55:11;5.40;;;0.90;;
71637;SDS011;59485;43.542;-5.676;2023-10-31T06:57:39;8.23;;;1.23;;
71637;SDS011;59485;43.542;-5.676;2023-10-31T07:00:04;5.77;;;1.13;;
71637;SDS011;59485;43.542;-5.676;2023-10-31T07:02:36;8.30;;;1.45;;
71637;SDS011;59485;43.542;-5.676;2023-10-31T07:05:01;9.48;;;1.52;;
71637;SDS011;59485;43.542;-5.676;2023-10-31T07:07:29;10.43;;;2.85;;
71637;SDS011;59485;43.542;-5.676;2023-10-31T07:09:55;16.07;;;3.00;;
71637;SDS011;59485;43.542;-5.676;2023-10-31T07:12:21;11.25;;;3.75;;
71637;SDS011;59485;43.542;-5.676;2023-10-31T07:14:49;14.33;;;4.27;;
71637;SDS011;59485;43.542;-5.676;2023-10-31T07:17:17;12.30;;;4.57;;
71637;SDS011;59485;43.542;-5.676;2023-10-31T07:19:44;13.37;;;3.57;;
71637;SDS011;59485;43.542;-5.676;2023-10-31T07:22:13;12.13;;;3.47;;
71637;SDS011;59485;43.542;-5.676;2023-10-31T07:24:41;12.80;;;3.30;;
71637;SDS011;59485;43.542;-5.676;2023-10-31T07:27:08;11.73;;;2.65;;
71637;SDS011;59485;43.542;-5.676;2023-10-31T07:29:38;10.25;;;3.30;;
71637;SDS011;59485;43.542;-5.676;2023-10-31T07:32:13;11.53;;;3.27;;
71637;SDS011;59485;43.542;-5.676;2023-10-31T07:34:41;12.48;;;4.28;;
71637;SDS011;59485;43.542;-5.676;2023-10-31T07:37:07;15.77;;;4.35;;
71637;SDS011;59485;43.542;-5.676;2023-10-31T07:39:32;12.67;;;4.03;;
71637;SDS011;59485;43.542;-5.676;2023-10-31T07:41:58;10.20;;;2.67;;
71637;SDS011;59485;43.542;-5.676;2023-10-31T07:44:23;10.18;;;2.50;;
71637;SDS011;59485;43.542;-5.676;2023-10-31T07:46:49;13.10;;;3.30;;
71637;SDS011;59485;43.542;-5.676;2023-10-31T07:49:14;8.27;;;3.30;;
71637;SDS011;59485;43.542;-5.676;2023-10-31T07:51:40;7.60;;;2.40;;
71637;SDS011;59485;43.542;-5.676;2023-10-31T07:54:05;7.95;;;2.05;;
71637;SDS011;59485;43.542;-5.676;2023-10-31T07:56:31;8.53;;;2.90;;
71637;SDS011;59485;43.542;-5.676;2023-10-31T07:58:58;8.73;;;2.38;;
71637;SDS011;59485;43.542;-5.676;2023-10-31T08:01:23;8.80;;;2.17;;
71637;SDS011;59485;43.542;-5.676;2023-10-31T08:03:48;8.65;;;2.00;;
71637;SDS011;59485;43.542;-5.676;2023-10-31T08:06:14;9.60;;;1.73;;
71637;SDS011;59485;43.542;-5.676;2023-10-31T08:08:39;8.07;;;1.80;;
71637;SDS011;59485;43.542;-5.676;2023-10-31T08:11:08;6.03;;;1.93;;
71637;SDS011;59485;43.542;-5.676;2023-10-31T08:13:35;8.18;;;1.63;;
71637;SDS011;59485;43.542;-5.676;2023-10-31T08:16:00;7.72;;;1.27;;
71637;SDS011;59485;43.542;-5.676;2023-10-31T08:18:26;4.20;;;1.20;;
71637;SDS011;59485;43.542;-5.676;2023-10-31T08:20:51;4.77;;;0.90;;
71637;SDS011;59485;43.542;-5.676;2023-10-31T08:23:17;5.13;;;1.20;;
71637;SDS011;59485;43.542;-5.676;2023-10-31T08:25:43;7.60;;;1.42;;
71637;SDS011;59485;43.542;-5.676;2023-10-31T08:28:08;7.70;;;1.60;;
71637;SDS011;59485;43.542;-5.676;2023-10-31T08:30:33;10.50;;;1.33;;
71637;SDS011;59485;43.542;-5.676;2023-10-31T08:32:59;7.87;;;1.37;;
71637;SDS011;59485;43.542;-5.676;2023-10-31T08:35:24;10.00;;;1.37;;
71637;SDS011;59485;43.542;-5.676;2023-10-31T08:37:50;4.03;;;1.00;;
71637;SDS011;59485;43.542;-5.676;2023-10-31T08:40:15;7.63;;;0.93;;
71637;SDS011;59485;43.542;-5.676;2023-10-31T08:42:40;4.13;;;0.70;;
71637;SDS011;59485;43.542;-5.676;2023-10-31T08:45:07;3.53;;;0.87;;
71637;SDS011;59485;43.542;-5.676;2023-10-31T08:47:32;5.87;;;0.83;;
71637;SDS011;59485;43.542;-5.676;2023-10-31T08:49:57;4.63;;;0.50;;
71637;SDS011;59485;43.542;-5.676;2023-10-31T08:52:23;3.78;;;0.47;;
71637;SDS011;59485;43.542;-5.676;2023-10-31T08:54:48;4.13;;;0.60;;
71637;SDS011;59485;43.542;-5.676;2023-10-31T08:57:14;5.03;;;0.83;;
71637;SDS011;59485;43.542;-5.676;2023-10-31T08:59:39;14.07;;;1.53;;
71637;SDS011;59485;43.542;-5.676;2023-10-31T09:02:05;8.27;;;1.35;;
71637;SDS011;59485;43.542;-5.676;2023-10-31T09:04:34;4.27;;;1.13;;
71637;SDS011;59485;43.542;-5.676;2023-10-31T09:07:00;4.72;;;0.82;;
71637;SDS011;59485;43.542;-5.676;2023-10-31T09:09:25;3.93;;;0.60;;
71637;SDS011;59485;43.542;-5.676;2023-10-31T09:11:51;3.80;;;0.60;;
71637;SDS011;59485;43.542;-5.676;2023-10-31T09:14:19;3.93;;;0.53;;
71637;SDS011;59485;43.542;-5.676;2023-10-31T09:16:44;5.10;;;0.63;;
71637;SDS011;59485;43.542;-5.676;2023-10-31T09:19:09;4.83;;;1.20;;
71637;SDS011;59485;43.542;-5.676;2023-10-31T09:21:35;4.73;;;0.80;;
71637;SDS011;59485;43.542;-5.676;2023-10-31T09:24:01;4.93;;;0.80;;
71637;SDS011;59485;43.542;-5.676;2023-10-31T09:26:26;341.38;;;122.68;;
71637;SDS011;59485;43.542;-5.676;2023-10-31T09:28:51;276.03;;;107.73;;
71637;SDS011;59485;43.542;-5.676;2023-10-31T09:31:24;235.93;;;96.20;;
71637;SDS011;59485;43.542;-5.676;2023-10-31T09:33:59;293.30;;;113.15;;
71637;SDS011;59485;43.542;-5.676;2023-10-31T09:36:24;265.27;;;102.97;;
71637;SDS011;59485;43.542;-5.676;2023-10-31T09:58:42;213.10;;;90.43;;
71637;SDS011;59485;43.542;-5.676;2023-10-31T10:06:23;17.70;;;5.60;;
71637;SDS011;59485;43.542;-5.676;2023-10-31T10:08:49;8.13;;;2.00;;
71637;SDS011;59485;43.542;-5.676;2023-10-31T10:11:14;10.40;;;1.60;;
71637;SDS011;59485;43.542;-5.676;2023-10-31T10:13:42;13.13;;;4.00;;
71637;SDS011;59485;43.542;-5.676;2023-10-31T10:16:08;10.30;;;3.15;;
71637;SDS011;59485;43.542;-5.676;2023-10-31T10:18:34;9.53;;;3.70;;
71637;SDS011;59485;43.542;-5.676;2023-10-31T10:21:03;12.13;;;2.75;;
71637;SDS011;59485;43.542;-5.676;2023-10-31T10:23:28;10.35;;;2.80;;
71637;SDS011;59485;43.542;-5.676;2023-10-31T10:25:55;8.77;;;2.22;;
71637;SDS011;59485;43.542;-5.676;2023-10-31T10:28:21;8.13;;;3.20;;
71637;SDS011;59485;43.542;-5.676;2023-10-31T10:30:47;12.77;;;4.30;;
71637;SDS011;59485;43.542;-5.676;2023-10-31T14:46:46;10.35;;;1.95;;
71637;SDS011;59485;43.542;-5.676;2023-10-31T14:54:40;20.77;;;3.47;;
71637;SDS011;59485;43.542;-5.676;2023-10-31T15:16:09;12.23;;;3.05;;
71637;SDS011;59485;43.542;-5.676;2023-10-31T15:18:38;15.82;;;4.03;;
71637;SDS011;59485;43.542;-5.676;2023-10-31T15:47:46;13.20;;;1.70;;
71637;SDS011;59485;43.542;-5.676;2023-10-31T15:50:12;16.90;;;1.60;;
71637;SDS011;59485;43.542;-5.676;2023-10-31T15:52:46;18.58;;;2.45;;
71637;SDS011;59485;43.542;-5.676;2023-10-31T15:55:12;18.30;;;2.47;;
71637;SDS011;59485;43.542;-5.676;2023-10-31T15:57:38;21.57;;;2.60;;
71637;SDS011;59485;43.542;-5.676;2023-10-31T16:00:07;10.57;;;1.53;;
71637;SDS011;59485;43.542;-5.676;2023-10-31T16:02:38;10.60;;;1.40;;
71637;SDS011;59485;43.542;-5.676;2023-10-31T16:05:34;18.05;;;2.13;;
71637;SDS011;59485;43.542;-5.676;2023-10-31T20:39:10;4.93;;;0.40;;
71637;SDS011;59485;43.542;-5.676;2023-10-31T20:41:38;4.53;;;0.60;;
71637;SDS011;59485;43.542;-5.676;2023-10-31T20:44:04;3.50;;;0.40;;
71637;SDS011;59485;43.542;-5.676;2023-10-31T20:46:30;5.15;;;0.40;;
71637;SDS011;59485;43.542;-5.676;2023-10-31T20:48:56;3.45;;;0.80;;
71637;SDS011;59485;43.542;-5.676;2023-10-31T20:51:22;4.07;;;0.70;;
71637;SDS011;59485;43.542;-5.676;2023-10-31T20:53:48;3.65;;;0.55;;
71637;SDS011;59485;43.542;-5.676;2023-10-31T20:56:13;6.83;;;1.50;;
71637;SDS011;59485;43.542;-5.676;2023-10-31T20:58:39;8.20;;;1.58;;
71637;SDS011;59485;43.542;-5.676;2023-10-31T21:01:09;6.40;;;1.60;;
71637;SDS011;59485;43.542;-5.676;2023-10-31T21:03:35;7.33;;;1.43;;
71637;SDS011;59485;43.542;-5.676;2023-10-31T21:06:03;7.03;;;1.33;;
71637;SDS011;59485;43.542;-5.676;2023-10-31T21:08:30;5.55;;;1.42;;
71637;SDS011;59485;43.542;-5.676;2023-10-31T21:10:55;6.73;;;1.60;;
71637;SDS011;59485;43.542;-5.676;2023-10-31T21:13:21;7.95;;;1.48;;
71637;SDS011;59485;43.542;-5.676;2023-10-31T21:15:47;6.40;;;1.47;;
71637;SDS011;59485;43.542;-5.676;2023-10-31T21:18:12;5.93;;;1.35;;
71637;SDS011;59485;43.542;-5.676;2023-10-31T21:20:38;6.83;;;1.70;;
71637;SDS011;59485;43.542;-5.676;2023-10-31T21:23:03;7.72;;;1.75;;
71637;SDS011;59485;43.542;-5.676;2023-10-31T21:25:29;6.77;;;1.93;;
71637;SDS011;59485;43.542;-5.676;2023-10-31T21:27:55;6.07;;;1.27;;
71637;SDS011;59485;43.542;-5.676;2023-10-31T21:30:20;4.90;;;0.83;;
71637;SDS011;59485;43.542;-5.676;2023-10-31T21:32:47;6.07;;;1.52;;
71637;SDS011;59485;43.542;-5.676;2023-10-31T21:35:13;6.00;;;1.25;;
71637;SDS011;59485;43.542;-5.676;2023-10-31T21:37:40;4.63;;;1.17;;
71637;SDS011;59485;43.542;-5.676;2023-10-31T21:40:07;5.68;;;1.40;;
71637;SDS011;59485;43.542;-5.676;2023-10-31T21:42:33;4.85;;;1.20;;
71637;SDS011;59485;43.542;-5.676;2023-10-31T21:44:59;5.60;;;1.30;;
71637;SDS011;59485;43.542;-5.676;2023-10-31T21:47:28;4.78;;;1.00;;
71637;SDS011;59485;43.542;-5.676;2023-10-31T21:49:54;7.10;;;1.25;;
71637;SDS011;59485;43.542;-5.676;2023-10-31T21:52:22;8.33;;;1.20;;
71637;SDS011;59485;43.542;-5.676;2023-10-31T21:54:57;7.00;;;1.42;;
71637;SDS011;59485;43.542;-5.676;2023-10-31T21:57:23;6.28;;;1.05;;
71637;SDS011;59485;43.542;-5.676;2023-10-31T21:59:48;5.63;;;1.00;;
71637;SDS011;59485;43.542;-5.676;2023-10-31T22:02:14;8.00;;;1.70;;
71637;SDS011;59485;43.542;-5.676;2023-10-31T22:04:40;6.17;;;1.63;;
71637;SDS011;59485;43.542;-5.676;2023-10-31T22:07:06;7.72;;;1.67;;
71637;SDS011;59485;43.542;-5.676;2023-10-31T22:09:31;6.73;;;1.70;;
71637;SDS011;59485;43.542;-5.676;2023-10-31T22:11:57;5.97;;;1.35;;
71637;SDS011;59485;43.542;-5.676;2023-10-31T22:14:22;5.57;;;1.40;;
71637;SDS011;59485;43.542;-5.676;2023-10-31T22:16:50;6.15;;;1.40;;
71637;SDS011;59485;43.542;-5.676;2023-10-31T22:19:16;6.73;;;1.57;;
71637;SDS011;59485;43.542;-5.676;2023-10-31T22:21:47;5.30;;;0.90;;
71637;SDS011;59485;43.542;-5.676;2023-10-31T22:24:13;9.07;;;1.40;;
71637;SDS011;59485;43.542;-5.676;2023-10-31T22:26:39;8.02;;;2.00;;
71637;SDS011;59485;43.542;-5.676;2023-10-31T22:29:04;7.13;;;2.50;;
71637;SDS011;59485;43.542;-5.676;2023-10-31T22:31:30;10.82;;;2.72;;
71637;SDS011;59485;43.542;-5.676;2023-10-31T22:34:01;10.50;;;2.93;;
71637;SDS011;59485;43.542;-5.676;2023-10-31T22:36:27;6.88;;;1.70;;
71637;SDS011;59485;43.542;-5.676;2023-10-31T22:38:52;8.13;;;2.25;;
71637;SDS011;59485;43.542;-5.676;2023-10-31T22:41:18;8.33;;;2.10;;
71637;SDS011;59485;43.542;-5.676;2023-10-31T22:43:43;8.00;;;1.30;;
71637;SDS011;59485;43.542;-5.676;2023-10-31T22:46:09;5.75;;;1.50;;
71637;SDS011;59485;43.542;-5.676;2023-10-31T22:48:34;7.50;;;2.77;;
71637;SDS011;59485;43.542;-5.676;2023-10-31T22:51:00;6.20;;;2.30;;
71637;SDS011;59485;43.542;-5.676;2023-10-31T22:53:26;6.57;;;2.05;;
71637;SDS011;59485;43.542;-5.676;2023-10-31T22:55:54;8.82;;;1.80;;
71637;SDS011;59485;43.542;-5.676;2023-10-31T22:58:20;7.77;;;1.87;;
71637;SDS011;59485;43.542;-5.676;2023-10-31T23:00:45;10.25;;;2.10;;
71637;SDS011;59485;43.542;-5.676;2023-10-31T23:03:11;5.90;;;1.50;;
71637;SDS011;59485;43.542;-5.676;2023-10-31T23:05:40;6.50;;;1.83;;
71637;SDS011;59485;43.542;-5.676;2023-10-31T23:08:08;6.40;;;2.17;;
71637;SDS011;59485;43.542;-5.676;2023-10-31T23:10:34;8.30;;;2.10;;
71637;SDS011;59485;43.542;-5.676;2023-10-31T23:13:00;9.38;;;2.42;;
71637;SDS011;59485;43.542;-5.676;2023-10-31T23:21:05;5.63;;;1.55;;
71637;SDS011;59485;43.542;-5.676;2023-10-31T23:23:33;7.35;;;1.60;;
71637;SDS011;59485;43.542;-5.676;2023-10-31T23:25:59;7.33;;;2.37;;
71637;SDS011;59485;43.542;-5.676;2023-10-31T23:28:24;9.10;;;1.90;;
71637;SDS011;59485;43.542;-5.676;2023-10-31T23:30:50;8.23;;;2.00;;
71637;SDS011;59485;43.542;-5.676;2023-10-31T23:33:22;6.57;;;2.07;;
71637;SDS011;59485;43.542;-5.676;2023-10-31T23:35:48;10.50;;;2.33;;
71637;SDS011;59485;43.542;-5.676;2023-10-31T23:38:14;6.75;;;2.05;;
71637;SDS011;59485;43.542;-5.676;2023-10-31T23:40:39;9.33;;;1.97;;
71637;SDS011;59485;43.542;-5.676;2023-10-31T23:43:10;7.47;;;1.98;;
71637;SDS011;59485;43.542;-5.676;2023-10-31T23:45:37;8.98;;;1.77;;
71637;SDS011;59485;43.542;-5.676;2023-10-31T23:58:05;4.60;;;0.82;;
